Time;durP1;ratioP1;P1;durP2;ratioP2;P2;SDS_P1;SDS_P2;PMS_P1;PMS_P2;Temp;Humidity;BMP_temperature;BMP_pressure;BME280_temperature;BME280_humidity;BME280_pressure;Samples;Min_cycle;Max_cycle;Signal;HPM_P1;HPM_P2
2022/11/16 00:01:26;;;;;;;41.13;29.00;;;;;;;10.80;100.00;100110.81;4947723;28;20019;-86
2022/11/16 00:03:55;;;;;;;42.97;28.52;;;;;;;10.83;100.00;100110.50;4955166;28;20466;-86
2022/11/16 00:06:22;;;;;;;37.30;25.75;;;;;;;10.82;100.00;100098.44;4954046;28;20101;-86
2022/11/16 00:09:21;;;;;;;41.50;27.25;;;;;;;10.84;100.00;100095.69;4954282;28;20057;-86
2022/11/16 00:11:36;;;;;;;39.83;26.63;;;;;;;10.80;100.00;100087.38;4946255;28;20043;-86
2022/11/16 00:14:02;;;;;;;39.70;26.63;;;;;;;10.81;100.00;100094.22;4954411;28;20031;-86
2022/11/16 00:16:28;;;;;;;43.58;27.00;;;;;;;10.79;100.00;100093.53;4974198;28;20042;-86
2022/11/16 00:18:59;;;;;;;39.35;26.75;;;;;;;10.80;100.00;100089.16;4949984;28;20043;-86
2022/11/16 00:21:26;;;;;;;39.75;27.35;;;;;;;10.76;100.00;100082.63;4952971;28;20070;-86
2022/11/16 00:23:51;;;;;;;43.35;29.05;;;;;;;10.74;100.00;100069.75;4960950;28;20041;-86
2022/11/16 00:26:17;;;;;;;41.63;29.80;;;;;;;10.72;100.00;100070.88;4956877;28;20035;-86
2022/11/16 00:28:43;;;;;;;50.47;30.80;;;;;;;10.69;100.00;100061.56;4955213;28;20400;-86
2022/11/16 00:31:09;;;;;;;45.00;30.10;;;;;;;10.72;100.00;100056.06;4951585;28;20031;-86
2022/11/16 00:33:35;;;;;;;49.53;32.65;;;;;;;10.72;100.00;100055.22;4949127;28;20031;-86
2022/11/16 00:36:05;;;;;;;49.80;33.20;;;;;;;10.72;100.00;100048.22;4949187;28;20046;-86
2022/11/16 00:38:30;;;;;;;52.13;32.70;;;;;;;10.69;100.00;100045.94;4958382;28;20106;-86
2022/11/16 00:40:56;;;;;;;49.53;31.30;;;;;;;10.63;100.00;100036.13;4956991;28;20455;-86
2022/11/16 00:43:22;;;;;;;49.67;30.80;;;;;;;10.64;100.00;100035.16;4952677;28;20828;-86
2022/11/16 00:45:48;;;;;;;58.40;33.17;;;;;;;10.67;100.00;100027.03;4947947;28;20373;-86
2022/11/16 00:48:13;;;;;;;54.50;32.88;;;;;;;10.65;100.00;100018.56;4951599;28;20028;-86
2022/11/16 00:50:39;;;;;;;54.47;31.50;;;;;;;10.62;100.00;100013.66;4947990;28;20062;-86
2022/11/16 00:53:05;;;;;;;53.42;31.40;;;;;;;10.62;100.00;100016.25;4946781;28;20102;-86
2022/11/16 00:55:31;;;;;;;51.60;31.17;;;;;;;10.64;100.00;100007.31;4958285;28;20036;-86
2022/11/16 00:57:56;;;;;;;50.95;31.63;;;;;;;10.64;100.00;100003.91;4947074;28;20386;-86
2022/11/16 01:00:22;;;;;;;51.90;30.95;;;;;;;10.62;100.00;99995.41;4949004;28;20027;-85
2022/11/16 01:02:48;;;;;;;50.38;30.95;;;;;;;10.64;100.00;99996.09;4954974;28;20027;-86
2022/11/16 01:05:13;;;;;;;48.95;30.20;;;;;;;10.61;100.00;99991.19;4953933;28;20074;-86
2022/11/16 01:07:39;;;;;;;48.70;30.45;;;;;;;10.65;100.00;99997.72;4954237;28;20039;-86
2022/11/16 01:10:12;;;;;;;47.75;30.02;;;;;;;10.68;100.00;99999.19;4958668;28;21306;-86
2022/11/16 01:12:38;;;;;;;46.00;29.50;;;;;;;10.72;100.00;100003.94;4957281;28;20118;-86
2022/11/16 01:15:05;;;;;;;46.35;29.15;;;;;;;10.74;100.00;99985.53;4956430;28;20123;-86
2022/11/16 01:17:31;;;;;;;44.33;28.38;;;;;;;10.71;100.00;99983.25;4957324;28;20519;-86
2022/11/16 01:19:56;;;;;;;42.25;26.70;;;;;;;10.71;100.00;99984.06;4951779;28;20035;-86
2022/11/16 01:22:22;;;;;;;44.55;27.38;;;;;;;10.69;100.00;99970.38;4953035;28;20039;-86
2022/11/16 01:24:47;;;;;;;43.25;26.80;;;;;;;10.70;100.00;99974.63;4960142;28;20042;-86
2022/11/16 01:27:13;;;;;;;45.30;26.65;;;;;;;10.68;100.00;99973.97;4958019;28;20542;-86
2022/11/16 01:29:38;;;;;;;38.83;24.45;;;;;;;10.69;100.00;99967.78;4949891;28;20079;-86
2022/11/16 01:32:05;;;;;;;34.20;24.42;;;;;;;10.68;100.00;99965.31;4952864;28;20034;-86
2022/11/16 01:34:30;;;;;;;37.22;23.55;;;;;;;10.66;100.00;99964.66;4955179;28;20043;-86
2022/11/16 01:36:55;;;;;;;32.35;22.60;;;;;;;10.65;100.00;99966.44;4958686;28;20055;-86
2022/11/16 01:39:22;;;;;;;34.60;21.65;;;;;;;10.62;100.00;99956.34;4956161;28;20035;-86
2022/11/16 01:41:48;;;;;;;36.45;22.80;;;;;;;10.62;100.00;99957.16;4964030;28;20038;-86
2022/11/16 01:44:13;;;;;;;34.17;22.33;;;;;;;10.63;100.00;99950.16;4955411;28;20032;-86
2022/11/16 01:46:39;;;;;;;36.08;21.08;;;;;;;10.62;100.00;99936.31;4951970;28;20027;-86
2022/11/16 01:49:11;;;;;;;32.85;20.95;;;;;;;10.62;100.00;99935.50;4953716;28;20063;-86
2022/11/16 01:51:38;;;;;;;31.73;20.00;;;;;;;10.60;100.00;99933.06;4951236;28;20387;-86
2022/11/16 01:54:07;;;;;;;33.15;20.50;;;;;;;10.63;100.00;99929.31;4956002;28;20094;-86
2022/11/16 01:56:35;;;;;;;30.73;19.52;;;;;;;10.62;100.00;99935.50;4953844;28;20383;-85
2022/11/16 01:59:01;;;;;;;29.42;19.63;;;;;;;10.65;100.00;99932.59;4962286;28;20027;-86
2022/11/16 02:01:27;;;;;;;30.58;19.85;;;;;;;10.66;100.00;99936.81;4949695;28;20050;-86
2022/11/16 02:03:52;;;;;;;30.25;20.05;;;;;;;10.67;100.00;99933.25;4958239;28;20024;-86
2022/11/16 02:06:27;;;;;;;28.60;18.75;;;;;;;10.63;100.00;99921.50;4957915;28;20035;-86
2022/11/16 02:11:39;;;;;;;23.10;16.23;;;;;;;10.63;100.00;99896.28;4951463;28;20454;-86
2022/11/16 02:14:10;;;;;;;21.55;15.82;;;;;;;10.65;100.00;99901.31;4962547;28;20042;-86
2022/11/16 02:16:59;;;;;;;21.92;15.75;;;;;;;10.62;100.00;99889.44;4953289;28;20090;-86
2022/11/16 02:20:15;;;;;;;23.00;16.05;;;;;;;10.66;100.00;99881.28;4956240;28;20035;-86
2022/11/16 02:23:11;;;;;;;21.88;14.80;;;;;;;10.67;100.00;99886.34;4931176;29;20057;-86
2022/11/16 02:25:49;;;;;;;22.75;15.68;;;;;;;10.71;100.00;99877.25;4930143;29;20051;-87
2022/11/16 02:28:26;;;;;;;25.98;16.98;;;;;;;10.74;100.00;99874.31;4920923;29;20078;-86
2022/11/16 02:30:55;;;;;;;23.67;16.63;;;;;;;10.72;100.00;99865.84;4916810;29;20073;-86
2022/11/16 02:33:24;;;;;;;23.27;16.73;;;;;;;10.74;100.00;99856.09;4930641;29;20452;-86
2022/11/16 02:35:55;;;;;;;23.45;16.75;;;;;;;10.76;100.00;99858.53;4934634;29;20463;-86
2022/11/16 02:38:26;;;;;;;25.52;17.98;;;;;;;10.75;100.00;99851.69;4930936;29;20043;-86
2022/11/16 02:41:00;;;;;;;27.17;18.40;;;;;;;10.76;100.00;99853.31;4928111;29;20107;-86
2022/11/16 02:43:36;;;;;;;29.33;18.17;;;;;;;10.73;100.00;99846.63;4932147;29;20039;-86
2022/11/16 02:46:07;;;;;;;23.42;16.35;;;;;;;10.74;100.00;99845.66;4933766;29;20032;-86
2022/11/16 02:48:39;;;;;;;27.05;17.63;;;;;;;10.75;100.00;99834.25;4936804;29;20073;-86
2022/11/16 02:51:05;;;;;;;24.92;16.50;;;;;;;10.77;100.00;99834.91;4933052;29;20133;-86
2022/11/16 02:53:36;;;;;;;24.17;16.40;;;;;;;10.79;100.00;99824.34;4935309;29;20122;-86
2022/11/16 02:56:01;;;;;;;27.00;17.08;;;;;;;10.79;100.00;99827.75;4935695;29;20463;-86
2022/11/16 02:58:28;;;;;;;24.15;16.70;;;;;;;10.81;100.00;99822.38;4944570;28;20050;-86
2022/11/16 03:00:59;;;;;;;22.33;15.38;;;;;;;10.82;100.00;99813.59;4963122;28;20542;-86
2022/11/16 03:03:27;;;;;;;25.48;16.55;;;;;;;10.81;100.00;99807.56;4960495;28;20038;-86
2022/11/16 03:06:01;;;;;;;18.45;14.23;;;;;;;10.79;100.00;99812.13;4958484;28;20034;-86
2022/11/16 03:08:35;;;;;;;20.08;14.48;;;;;;;10.76;100.00;99809.84;4948853;28;20031;-86
2022/11/16 03:13:51;;;;;;;14.98;10.52;;;;;;;10.77;100.00;99805.44;4952251;28;20545;-86
2022/11/16 03:16:25;;;;;;;20.10;14.57;;;;;;;10.78;100.00;99800.06;4953420;28;20066;-86
2022/11/16 03:18:54;;;;;;;22.83;15.35;;;;;;;10.75;100.00;99794.38;4951926;28;20126;-86
2022/11/16 03:21:46;;;;;;;24.33;16.35;;;;;;;10.73;100.00;99791.91;4955223;28;20046;-86
2022/11/16 03:24:12;;;;;;;27.45;16.85;;;;;;;10.68;100.00;99788.16;4947773;28;20039;-87
2022/11/16 03:27:00;;;;;;;25.40;17.13;;;;;;;10.65;100.00;99789.28;4960971;28;20583;-86
2022/11/16 03:29:41;;;;;;;29.40;18.85;;;;;;;10.63;100.00;99786.03;4953604;28;20043;-86
2022/11/16 03:32:31;;;;;;;31.42;19.52;;;;;;;10.57;100.00;99781.47;4960094;28;20175;-86
2022/11/16 03:35:03;;;;;;;32.70;20.75;;;;;;;10.53;100.00;99769.75;4953601;28;20049;-86
2022/11/16 03:37:30;;;;;;;35.63;20.90;;;;;;;10.52;100.00;99770.72;4948427;28;20044;-86
2022/11/16 03:39:59;;;;;;;33.40;19.88;;;;;;;10.52;100.00;99761.13;4953682;28;20081;-86
2022/11/16 03:42:26;;;;;;;31.75;19.33;;;;;;;10.54;100.00;99769.59;4961356;28;20377;-86
2022/11/16 03:44:53;;;;;;;33.28;19.90;;;;;;;10.57;100.00;99766.66;4954252;28;20478;-86
2022/11/16 03:47:19;;;;;;;28.33;17.65;;;;;;;10.58;100.00;99762.25;4948548;28;20396;-87
2022/11/16 03:49:45;;;;;;;24.05;13.70;;;;;;;10.59;100.00;99762.09;4951826;28;20045;-86
2022/11/16 03:52:11;;;;;;;23.40;13.75;;;;;;;10.60;100.00;99763.72;4966232;28;20090;-86
2022/11/16 03:54:37;;;;;;;23.02;15.52;;;;;;;10.64;100.00;99762.44;4957391;28;20035;-87
2022/11/16 03:57:02;;;;;;;19.33;13.32;;;;;;;10.59;100.00;99756.06;4961138;28;20489;-86
2022/11/16 03:59:28;;;;;;;22.65;12.65;;;;;;;10.53;100.00;99764.53;4962380;28;20041;-86
2022/11/16 04:01:53;;;;;;;13.00;9.20;;;;;;;10.47;100.00;99759.97;4957201;28;20045;-86
2022/11/16 04:26:11;;;;;;;12.10;8.70;;;;;;;10.19;100.00;99716.00;4952677;28;20053;-86
2022/11/16 04:28:38;;;;;;;12.25;8.48;;;;;;;10.18;100.00;99710.91;4954249;28;20035;-87
2022/11/16 04:39:20;;;;;;;11.52;8.57;;;;;;;10.33;100.00;99696.34;4955827;28;20537;-86
2022/11/16 04:47:35;;;;;;;28.40;15.52;;;;;;;10.40;100.00;99676.47;4918941;29;20047;-86
2022/11/16 04:50:00;;;;;;;17.33;12.23;;;;;;;10.40;100.00;99671.25;4909861;29;20052;-86
2022/11/16 04:52:26;;;;;;;12.63;9.45;;;;;;;10.37;100.00;99666.41;4914121;29;20036;-86
2022/11/16 04:54:51;;;;;;;13.25;8.85;;;;;;;10.36;100.00;99669.16;4902654;29;22001;-86
2022/11/16 04:57:16;;;;;;;10.75;7.95;;;;;;;10.35;100.00;99664.94;4917016;29;20071;-87
2022/11/16 04:59:42;;;;;;;10.05;7.60;;;;;;;10.34;100.00;99663.31;4915230;29;20111;-86
2022/11/16 05:02:07;;;;;;;13.10;7.63;;;;;;;10.30;100.00;99655.00;4915656;29;20079;-87
2022/11/16 05:04:37;;;;;;;9.55;7.10;;;;;;;10.32;100.00;99657.44;4895692;29;20131;-87
2022/11/16 05:07:09;;;;;;;10.23;7.70;;;;;;;10.34;100.00;99655.50;4919670;29;20042;-87
2022/11/16 05:09:42;;;;;;;12.40;7.78;;;;;;;10.31;100.00;99651.41;4902756;29;20469;-86
2022/11/16 05:12:09;;;;;;;12.73;7.78;;;;;;;10.29;100.00;99638.56;4913226;29;20436;-87
2022/11/16 05:14:35;;;;;;;10.98;7.68;;;;;;;10.30;100.00;99628.97;4899043;29;20044;-86
2022/11/16 05:17:01;;;;;;;9.88;7.28;;;;;;;10.30;100.00;99621.97;4900118;29;20575;-87
2022/11/16 05:22:10;;;;;;;10.20;7.68;;;;;;;10.30;100.00;99628.97;4945011;28;20102;-86
2022/11/16 05:24:36;;;;;;;15.27;12.45;;;;;;;10.30;100.00;99621.97;4950026;28;20054;-86
2022/11/16 05:27:13;;;;;;;17.67;12.50;;;;;;;10.33;100.00;99623.44;4957589;28;20037;-86
2022/11/16 05:29:39;;;;;;;21.35;10.57;;;;;;;10.35;100.00;99620.66;4964663;28;20094;-86
2022/11/16 05:32:06;;;;;;;12.55;8.52;;;;;;;10.36;100.00;99617.91;4958088;28;20129;-86
2022/11/16 05:34:32;;;;;;;12.82;8.65;;;;;;;10.34;100.00;99608.63;4955328;28;20027;-86
2022/11/16 05:36:57;;;;;;;14.15;9.15;;;;;;;10.35;100.00;99605.84;4949971;28;20524;-85
2022/11/16 05:39:23;;;;;;;15.80;10.52;;;;;;;10.40;100.00;99607.97;4951528;28;20129;-86
2022/11/16 05:41:49;;;;;;;17.80;10.48;;;;;;;10.41;100.00;99599.97;4949710;28;20031;-86
2022/11/16 05:44:15;;;;;;;24.30;14.68;;;;;;;10.45;100.00;99598.66;4952689;28;20031;-86
2022/11/16 05:46:41;;;;;;;25.23;15.13;;;;;;;10.47;100.00;99595.88;4954646;28;20027;-86
2022/11/16 05:49:07;;;;;;;24.60;16.30;;;;;;;10.52;100.00;99598.81;4951758;28;20141;-86
2022/11/16 05:51:34;;;;;;;27.52;16.67;;;;;;;10.55;100.00;99595.88;4945963;28;20031;-87
2022/11/16 05:54:00;;;;;;;29.67;15.48;;;;;;;10.56;100.00;99595.72;4952914;28;20410;-86
2022/11/16 05:56:26;;;;;;;23.42;15.10;;;;;;;10.57;100.00;99599.13;4961167;28;20027;-86
2022/11/16 05:58:51;;;;;;;26.60;15.27;;;;;;;10.55;100.00;99596.69;4953023;28;20041;-86
2022/11/16 06:01:17;;;;;;;21.23;13.65;;;;;;;10.55;100.00;99588.88;4958553;28;20129;-86
2022/11/16 06:03:42;;;;;;;19.15;11.25;;;;;;;10.53;100.00;99592.63;4964628;28;20042;-86
2022/11/16 06:06:08;;;;;;;17.50;11.45;;;;;;;10.52;100.00;99591.81;4952377;28;21318;-86
2022/11/16 06:08:33;;;;;;;23.48;12.45;;;;;;;10.53;100.00;99592.63;4950825;28;20035;-86
2022/11/16 06:11:07;;;;;;;20.25;12.77;;;;;;;10.53;100.00;99598.66;4956534;28;20431;-86
2022/11/16 06:13:33;;;;;;;20.23;12.93;;;;;;;10.54;100.00;99592.47;4956289;28;20482;-86
2022/11/16 06:15:59;;;;;;;19.88;12.05;;;;;;;10.56;100.00;99587.09;4956354;28;20036;-86
2022/11/16 06:18:25;;;;;;;18.63;11.75;;;;;;;10.55;100.00;99582.88;4966209;28;20070;-86
2022/11/16 06:20:51;;;;;;;22.98;13.60;;;;;;;10.55;100.00;99586.28;4956077;28;20070;-86
2022/11/16 06:23:16;;;;;;;20.13;12.68;;;;;;;10.53;100.00;99584.81;4951275;28;20039;-86
2022/11/16 06:25:42;;;;;;;16.25;10.05;;;;;;;10.52;100.00;99577.97;4952206;28;20557;-87
2022/11/16 06:28:07;;;;;;;19.88;11.43;;;;;;;10.54;100.00;99584.66;4947535;28;20032;-86
2022/11/16 06:30:33;;;;;;;17.58;10.50;;;;;;;10.55;100.00;99575.06;4956461;28;20486;-86
2022/11/16 06:32:58;;;;;;;12.50;8.13;;;;;;;10.55;100.00;99575.88;4955091;28;20035;-86
2022/11/16 06:35:24;;;;;;;11.30;8.20;;;;;;;10.58;100.00;99566.91;4955092;28;20039;-86
2022/11/16 06:37:49;;;;;;;11.05;7.15;;;;;;;10.56;100.00;99572.28;4950090;28;20055;-86
2022/11/16 06:40:15;;;;;;;9.52;5.82;;;;;;;10.58;100.00;99572.94;4948402;28;20023;-86
2022/11/16 06:42:40;;;;;;;6.97;4.88;;;;;;;10.57;100.00;99573.09;4956877;28;20043;-86
2022/11/16 06:45:06;;;;;;;7.00;4.63;;;;;;;10.55;100.00;99580.25;4950138;28;20042;-87
2022/11/16 06:47:32;;;;;;;8.00;4.50;;;;;;;10.55;100.00;99568.06;4955393;28;20023;-86
2022/11/16 06:49:57;;;;;;;6.97;4.03;;;;;;;10.53;100.00;99572.59;4952959;28;20066;-87
2022/11/16 06:52:22;;;;;;;7.35;5.47;;;;;;;10.51;100.00;99565.94;4947715;28;20134;-86
2022/11/16 06:54:48;;;;;;;9.75;5.78;;;;;;;10.48;100.00;99569.69;4955462;28;20540;-86
2022/11/16 06:57:13;;;;;;;13.27;6.25;;;;;;;10.42;100.00;99570.34;4958340;28;20030;-86
2022/11/16 06:59:41;;;;;;;7.93;5.80;;;;;;;10.35;100.00;99569.41;4952168;28;20046;-87
2022/11/16 07:02:09;;;;;;;8.70;6.15;;;;;;;10.34;100.00;99572.16;4952945;28;20042;-87
2022/11/16 07:04:34;;;;;;;10.80;5.55;;;;;;;10.28;100.00;99561.44;4955467;28;20087;-86
2022/11/16 07:07:00;;;;;;;6.95;5.35;;;;;;;10.29;100.00;99563.06;4957161;28;20059;-86
2022/11/16 07:09:25;;;;;;;8.02;4.75;;;;;;;10.26;100.00;99568.59;4951066;28;20039;-86
2022/11/16 07:11:51;;;;;;;10.15;5.95;;;;;;;10.26;100.00;99563.38;4956731;28;20031;-86
2022/11/16 07:14:17;;;;;;;7.95;5.60;;;;;;;10.28;100.00;99556.22;4957981;28;20038;-86
2022/11/16 07:16:42;;;;;;;8.50;5.80;;;;;;;10.26;100.00;99547.75;4954009;28;20089;-86
2022/11/16 07:19:09;;;;;;;9.20;6.53;;;;;;;10.27;100.00;99546.78;4952496;28;20039;-87
2022/11/16 07:21:36;;;;;;;10.18;6.95;;;;;;;10.28;100.00;99545.81;4953395;28;20813;-86
2022/11/16 07:24:01;;;;;;;8.55;5.47;;;;;;;10.30;100.00;99541.25;4952534;28;20028;-86
2022/11/16 07:26:29;;;;;;;7.97;5.43;;;;;;;10.32;100.00;99540.28;4953072;28;20027;-86
2022/11/16 07:28:57;;;;;;;7.53;5.50;;;;;;;10.35;100.00;99532.13;4952541;28;20499;-86
2022/11/16 07:31:22;;;;;;;11.25;6.05;;;;;;;10.35;100.00;99534.75;4953198;28;20038;-86
2022/11/16 07:33:48;;;;;;;7.63;6.18;;;;;;;10.37;100.00;99530.19;4952339;28;20032;-86
2022/11/16 07:36:14;;;;;;;5.93;5.32;;;;;;;10.39;100.00;99536.84;4951324;28;20055;-86
2022/11/16 07:38:40;;;;;;;10.43;6.00;;;;;;;10.42;100.00;99530.47;4950256;28;20035;-85
2022/11/16 07:41:08;;;;;;;10.68;5.72;;;;;;;10.44;100.00;99531.94;4946548;28;20039;-85
2022/11/16 07:43:34;;;;;;;9.13;6.10;;;;;;;10.48;100.00;99522.00;4948110;28;20042;-86
2022/11/16 07:46:09;;;;;;;12.32;6.32;;;;;;;10.44;100.00;99531.13;4949306;28;20035;-85
2022/11/16 07:48:34;;;;;;;9.00;5.60;;;;;;;10.39;100.00;99526.44;4950021;28;20451;-86
2022/11/16 07:51:05;;;;;;;9.05;5.38;;;;;;;10.37;100.00;99519.78;4950504;28;20141;-86
2022/11/16 07:53:32;;;;;;;6.28;5.47;;;;;;;10.37;100.00;99514.56;4952185;28;20463;-86
2022/11/16 07:55:58;;;;;;;8.90;5.93;;;;;;;10.34;100.00;99515.69;4949750;28;20043;-85
2022/11/16 07:58:24;;;;;;;6.13;4.88;;;;;;;10.36;100.00;99510.34;4950778;28;20035;-86
2022/11/16 08:00:50;;;;;;;7.68;5.30;;;;;;;10.39;100.00;99512.59;4953970;28;20036;-86
2022/11/16 08:03:16;;;;;;;6.22;5.22;;;;;;;10.40;100.00;99507.19;4949341;28;20111;-86
2022/11/16 08:05:43;;;;;;;9.85;5.75;;;;;;;10.38;100.00;99511.78;4951803;28;20399;-86
2022/11/16 08:08:09;;;;;;;10.88;6.13;;;;;;;10.38;100.00;99510.97;4946318;28;20050;-85
2022/11/16 08:10:35;;;;;;;8.00;5.75;;;;;;;10.39;100.00;99507.41;4946926;28;20118;-86
2022/11/16 08:13:00;;;;;;;9.90;6.20;;;;;;;10.43;100.00;99513.88;4952871;28;20142;-85
2022/11/16 08:15:26;;;;;;;8.80;6.30;;;;;;;10.46;100.00;99513.53;4950992;28;20034;-86
2022/11/16 08:17:51;;;;;;;9.43;6.13;;;;;;;10.48;100.00;99501.16;4951538;28;20039;-85
2022/11/16 08:20:17;;;;;;;8.07;6.05;;;;;;;10.49;100.00;99508.81;4950865;28;20082;-85
2022/11/16 08:22:43;;;;;;;9.00;5.28;;;;;;;10.50;100.00;99504.41;4953141;28;20038;-85
2022/11/16 08:25:09;;;;;;;7.80;6.20;;;;;;;10.51;100.00;99496.44;4950039;28;20035;-86
2022/11/16 08:27:35;;;;;;;12.18;6.15;;;;;;;10.56;100.00;99506.34;4948153;28;20027;-86
2022/11/16 08:30:07;;;;;;;8.50;6.13;;;;;;;10.58;100.00;99510.41;4951394;28;20043;-85
2022/11/16 08:32:33;;;;;;;8.27;5.60;;;;;;;10.59;100.00;99509.44;4948154;28;20042;-86
2022/11/16 08:34:58;;;;;;;5.85;4.78;;;;;;;10.61;100.00;99507.47;4953831;28;20035;-86
2022/11/16 08:37:24;;;;;;;6.07;4.60;;;;;;;10.60;100.00;99508.47;4949925;28;20137;-85
2022/11/16 08:39:50;;;;;;;8.45;5.28;;;;;;;10.62;100.00;99503.88;4952606;28;20031;-85
2022/11/16 08:42:15;;;;;;;7.10;5.63;;;;;;;10.62;100.00;99503.88;4951517;28;20086;-85
2022/11/16 08:44:41;;;;;;;5.35;4.65;;;;;;;10.64;100.00;99506.34;4964080;28;20086;-84
2022/11/16 08:47:06;;;;;;;7.63;5.13;;;;;;;10.63;100.00;99507.31;4952093;28;20045;-85
2022/11/16 08:49:31;;;;;;;6.05;4.50;;;;;;;10.63;100.00;99510.72;4951399;28;20109;-86
2022/11/16 08:51:57;;;;;;;6.40;4.68;;;;;;;10.65;100.00;99510.56;4950974;28;20106;-86
2022/11/16 08:54:22;;;;;;;5.25;4.30;;;;;;;10.67;100.00;99511.19;4951395;28;20033;-86
2022/11/16 08:56:48;;;;;;;5.40;4.47;;;;;;;10.70;100.00;99510.06;4952116;28;20498;-85
2022/11/16 08:59:13;;;;;;;6.28;4.25;;;;;;;10.69;100.00;99503.22;4953338;28;20089;-85
2022/11/16 09:01:39;;;;;;;7.05;4.65;;;;;;;10.68;100.00;99512.84;4954063;28;20454;-85
2022/11/16 09:04:04;;;;;;;6.75;4.50;;;;;;;10.70;100.00;99504.84;4952006;28;20086;-85
2022/11/16 09:06:30;;;;;;;9.02;4.30;;;;;;;10.66;100.00;99511.38;4951269;28;20039;-85
2022/11/16 09:08:56;;;;;;;5.55;4.10;;;;;;;10.66;100.00;99511.38;4945964;28;20077;-85
2022/11/16 09:11:23;;;;;;;8.60;3.90;;;;;;;10.66;100.00;99513.97;4949862;28;20038;-85
2022/11/16 09:13:51;;;;;;;5.65;4.13;;;;;;;10.63;100.00;99504.72;4950953;28;20035;-85
2022/11/16 09:16:19;;;;;;;7.55;4.50;;;;;;;10.63;100.00;99504.72;4950207;28;20502;-84
2022/11/16 09:18:49;;;;;;;6.28;4.00;;;;;;;10.68;100.00;99506.81;4950789;28;20186;-85
2022/11/16 09:21:23;;;;;;;9.00;4.97;;;;;;;10.64;100.00;99501.13;4950123;28;20027;-85
2022/11/16 09:23:49;;;;;;;4.55;3.25;;;;;;;10.68;100.00;99502.41;4952317;28;20469;-85
2022/11/16 09:26:19;;;;;;;4.07;3.58;;;;;;;10.70;100.00;99500.44;4958407;28;20390;-85
2022/11/16 09:28:45;;;;;;;3.85;3.03;;;;;;;10.72;100.00;99498.50;4950989;28;20387;-85
2022/11/16 09:31:10;;;;;;;4.82;2.92;;;;;;;10.75;100.00;99498.16;4953314;28;20131;-86
2022/11/16 09:33:36;;;;;;;6.95;3.13;;;;;;;10.78;100.00;99495.22;4954714;28;20035;-86
2022/11/16 09:36:07;;;;;;;5.85;3.25;;;;;;;10.78;100.00;99495.22;4955316;28;20142;-86
2022/11/16 09:38:41;;;;;;;4.43;2.92;;;;;;;10.82;100.00;99488.69;4953622;28;20031;-86
2022/11/16 09:41:46;;;;;;;6.97;3.08;;;;;;;10.83;100.00;99485.09;4955749;28;20093;-86
2022/11/16 09:44:53;;;;;;;4.22;3.13;;;;;;;10.88;100.00;99481.94;4914111;29;20095;-85
2022/11/16 09:47:30;;;;;;;2.95;2.30;;;;;;;10.90;100.00;99480.81;4930120;29;20158;-85
2022/11/16 09:50:00;;;;;;;3.75;2.75;;;;;;;10.95;100.00;99477.69;4932125;29;20035;-85
2022/11/16 09:52:42;;;;;;;3.20;1.98;;;;;;;11.00;100.00;99474.56;4913699;29;20040;-85
2022/11/16 09:55:39;;;;;;;3.67;2.40;;;;;;;10.97;100.00;99476.53;4914559;29;20046;-86
2022/11/16 09:58:10;;;;;;;;;;;;;;;10.94;100.00;99466.44;4917530;29;20043;-86
2022/11/16 10:00:40;;;;;;;4.55;2.03;;;;;;;11.08;100.00;99464.91;4928534;29;20390;-85
2022/11/16 10:03:11;;;;;;;4.57;2.45;;;;;;;11.14;100.00;99456.41;4933514;29;20036;-86
2022/11/16 10:05:42;;;;;;;3.33;2.88;;;;;;;11.22;100.00;99452.94;4927325;29;20047;-86
2022/11/16 10:08:26;;;;;;;6.10;2.80;;;;;;;11.33;100.00;99447.34;4914077;29;20042;-86
2022/11/16 10:10:51;;;;;;;3.63;2.97;;;;;;;11.39;100.00;99435.38;4921005;29;20519;-85
2022/11/16 10:13:47;;;;;;;7.75;3.45;;;;;;;11.44;100.00;99435.66;4909733;29;20067;-86
2022/11/16 10:16:27;;;;;;;4.53;3.90;;;;;;;11.46;100.00;99437.09;4928825;29;20518;-86
2022/11/16 10:19:38;;;;;;;5.25;4.20;;;;;;;11.53;100.00;99435.44;4931162;29;20051;-85
2022/11/16 10:22:23;;;;;;;5.25;4.00;;;;;;;11.59;100.00;99434.72;4937828;28;20034;-86
2022/11/16 10:24:59;;;;;;;6.20;4.60;;;;;;;11.64;100.00;99431.59;4950312;28;20039;-86
2022/11/16 10:27:43;;;;;;;6.25;4.88;;;;;;;11.71;100.00;99429.09;4946052;28;20036;-85
2022/11/16 10:30:15;;;;;;;6.72;4.93;;;;;;;11.76;100.00;99426.78;4959688;28;20035;-85
2022/11/16 10:33:01;;;;;;;6.22;5.13;;;;;;;11.72;100.00;99423.69;4937034;28;20031;-85
2022/11/16 10:35:32;;;;;;;5.00;3.92;;;;;;;11.69;100.00;99415.41;4956147;28;20038;-86
2022/11/16 10:38:01;;;;;;;5.40;4.03;;;;;;;11.68;100.00;99412.00;4948606;28;20058;-86
2022/11/16 10:40:36;;;;;;;4.63;4.15;;;;;;;11.66;100.00;99421.78;4949594;28;20605;-86
2022/11/16 10:43:15;;;;;;;4.90;3.88;;;;;;;11.63;100.00;99422.94;4950286;28;20035;-86
2022/11/16 10:45:56;;;;;;;3.72;3.20;;;;;;;11.63;100.00;99415.13;4945400;28;20039;-85
2022/11/16 10:48:41;;;;;;;3.90;3.47;;;;;;;11.61;100.00;99405.84;4948410;28;20044;-86
2022/11/16 10:51:08;;;;;;;3.88;3.17;;;;;;;11.61;100.00;99411.88;4955953;28;20487;-86
2022/11/16 10:53:36;;;;;;;4.40;3.47;;;;;;;11.61;100.00;99403.25;4956196;28;20030;-85
2022/11/16 10:56:13;;;;;;;3.58;3.03;;;;;;;11.58;100.00;99407.00;4962086;28;20119;-86
2022/11/16 10:58:55;;;;;;;5.40;3.72;;;;;;;11.54;100.00;99402.31;4945954;28;20035;-86
2022/11/16 11:01:38;;;;;;;3.90;3.50;;;;;;;11.53;100.00;99392.88;4952571;28;20031;-86
2022/11/16 11:04:20;;;;;;;5.65;3.40;;;;;;;11.57;100.00;99387.13;4953221;28;20031;-85
2022/11/16 11:06:50;;;;;;;9.02;3.38;;;;;;;11.63;100.00;99391.66;4949453;28;20042;-85
2022/11/16 11:09:34;;;;;;;4.95;3.55;;;;;;;11.63;100.00;99383.81;4943258;28;20039;-85
2022/11/16 11:15:16;;;;;;;;;;;;;;;11.64;100.00;99374.19;4940434;28;20054;-88
2022/11/16 11:17:43;;;;;;;3.28;2.72;;;;;;;11.66;100.00;99374.81;4952411;28;19914;-85
2022/11/16 11:20:15;;;;;;;4.82;3.63;;;;;;;11.64;100.00;99363.75;4954056;28;20031;-84
2022/11/16 11:22:42;;;;;;;7.65;4.18;;;;;;;11.69;100.00;99355.41;4944822;28;20027;-85
2022/11/16 11:25:36;;;;;;;6.50;4.50;;;;;;;11.69;100.00;99358.81;4951184;28;20043;-86
2022/11/16 11:28:23;;;;;;;4.85;3.50;;;;;;;11.74;100.00;99353.88;4949958;28;20395;-85
2022/11/16 11:31:03;;;;;;;4.75;3.58;;;;;;;11.79;100.00;99350.78;4949175;28;20067;-86
2022/11/16 11:33:47;;;;;;;4.30;2.95;;;;;;;11.78;100.00;99349.97;4956461;28;20046;-86
2022/11/16 11:36:39;;;;;;;3.83;3.05;;;;;;;11.79;100.00;99348.97;4953698;28;20134;-84
2022/11/16 11:39:10;;;;;;;4.60;3.42;;;;;;;11.80;100.00;99350.59;4954919;28;20053;-84
2022/11/16 11:41:43;;;;;;;3.58;3.13;;;;;;;11.84;100.00;99343.19;4964963;28;20557;-84
2022/11/16 11:44:11;;;;;;;5.22;3.38;;;;;;;11.88;100.00;99347.88;4955747;28;20034;-84
2022/11/16 11:46:38;;;;;;;5.07;3.40;;;;;;;11.89;100.00;99340.84;4958750;28;20036;-85
2022/11/16 11:49:20;;;;;;;4.88;3.17;;;;;;;11.89;100.00;99335.63;4958953;28;20046;-83
2022/11/16 11:51:48;;;;;;;3.83;2.95;;;;;;;11.88;100.00;99340.03;4958064;28;20399;-84
2022/11/16 11:54:24;;;;;;;4.35;2.55;;;;;;;11.84;100.00;99330.13;4957615;28;20078;-84
2022/11/16 11:56:50;;;;;;;5.07;2.45;;;;;;;11.87;100.00;99329.78;4957132;28;20510;-84
2022/11/16 11:59:19;;;;;;;2.83;2.42;;;;;;;11.83;100.00;99329.31;4954564;28;20035;-85
2022/11/16 12:02:01;;;;;;;3.53;2.22;;;;;;;11.85;100.00;99324.72;4949681;28;20058;-84
2022/11/16 12:04:35;;;;;;;2.63;2.20;;;;;;;11.87;100.00;99337.59;4947965;28;20043;-84
2022/11/16 12:07:28;;;;;;;2.55;2.20;;;;;;;11.88;100.00;99329.59;4951681;28;20039;-84
2022/11/16 12:10:24;;;;;;;2.85;2.55;;;;;;;11.86;100.00;99323.75;4953841;28;20098;-84
2022/11/16 12:13:17;;;;;;;4.93;2.65;;;;;;;11.84;100.00;99319.69;4950524;28;20035;-84
2022/11/16 12:16:04;;;;;;;2.95;2.65;;;;;;;11.83;100.00;99324.09;4952088;28;20403;-84
2022/11/16 12:18:41;;;;;;;4.80;2.88;;;;;;;11.82;100.00;99319.88;4949657;28;20036;-84